• Join FlightAware (Why Join?)
  • Login
  • US Flag 
05:25PM EDT


 

Airport Tracker/Info


-or-


 

Live Flight TrackerFlight Track Log ✈ N777NC ✈ 01-Jul-2013 ✈ KATL - KLIT

Flight Track Log - Related Links

Times and Time Zones

All times are in EDT time to prevent confusion due to time zone crossing. See the N777NC flight status page for this flight to view local times or setup timezone preferences in your user account.

Time Position Orientation Groundspeed Altitude Reporting Facility
EDT Latitude Longitude Course Direction KTS MPH feet Rate Location/Type
05:47PM 33.6578 -84.4956 268° West 438 504 2,800  Level Atlanta Center
05:48PM 33.6761 -84.5756 285° West 299 344 4,900 2,220 Climbing Atlanta Center
05:49PM 33.7000 -84.6500 291° West 269 310 6,900 2,400 Climbing Atlanta TRACON
05:50PM 33.6894 -84.9255 280° West  Level FlightAware Approximate
05:50PM 33.6833 -84.7333 257° West 269 310 9,300  Level Atlanta TRACON
05:51PM 33.7075 -85.0520 280° West  Level FlightAware Approximate
05:52PM 33.7167 -85.1794 270° West  Level FlightAware Approximate
05:52PM 33.6447 -84.9622 259° West 321 369 12,000  Level Atlanta Center
05:53PM 33.7136 -85.3077 268° West  Level FlightAware Approximate
05:53PM 33.6125 -85.0789 252° West 356 410 13,600  Level Atlanta Center
05:54PM 33.5842 -85.2008 254° West 376 433 15,200 1,740 Climbing Atlanta Center
05:55PM 33.5600 -85.3250 257° West 382 440 17,100 1,740 Climbing Atlanta Center
05:56PM 33.5461 -85.4544 263° West 394 453 18,700 1,260 Climbing Atlanta Center
05:58PM 33.5749 -85.5955 284° West  Level Estimated
05:58PM 33.5492 -85.7164 284° West 417 480 21,000  Level Atlanta Center
05:59PM 33.5658 -85.8514 278° West 422 486 22,900 1,440 Climbing Atlanta Center
06:00PM 33.5931 -85.9839 284° West 417 480 23,900 960 Climbing Atlanta Center
06:01PM 33.6264 -86.1194 286° West 417 480 24,900 1,080 Climbing Atlanta Center
06:02PM 33.6533 -86.2575 283° West 417 480 26,100 1,020 Climbing Atlanta Center
06:03PM 33.6569 -86.3997 272° West 417 480 27,000 840 Climbing Atlanta Center
06:04PM 33.6542 -86.5394 269° West 422 486 27,800 480 Climbing Atlanta Center
06:05PM 33.6386 -86.6761 262° West 422 486 28,000 60 Climbing Atlanta Center
06:06PM 33.6419 -86.8161 272° West 422 486 28,000  Level Atlanta Center
06:07PM 33.6636 -86.9564 281° West 422 486 28,000  Level Atlanta Center
06:08PM 33.7042 -87.0903 290° West 422 486 28,000  Level Atlanta Center
06:11PM 33.7956 -87.4153 289° West 429 494 28,000  Level Memphis Center
06:12PM 33.8217 -87.5567 283° West 434 499 28,000  Level Memphis Center
06:13PM 33.8478 -87.6961 283° West 429 494 28,000  Level Memphis Center
06:14PM 33.8758 -87.8378 283° West 435 501 28,000  Level Memphis Center
06:15PM 33.9014 -87.9797 282° West 430 495 28,000  Level Memphis Center
06:16PM 33.9314 -88.1342 283° West 430 495 28,000  Level Memphis Center
06:17PM 33.9611 -88.2786 284° West 440 506 28,000  Level Memphis Center
06:18PM 33.9906 -88.4231 284° West 440 506 28,000  Level Memphis Center
06:19PM 34.0303 -88.5575 290° West 435 501 28,000  Level Memphis Center
06:20PM 34.0697 -88.6972 289° West 435 501 28,000  Level Memphis Center
06:21PM 34.1069 -88.8319 288° West 435 501 28,000  Level Memphis Center
06:22PM 34.1400 -88.9744 286° West 435 501 28,000  Level Memphis Center
06:23PM 34.1706 -89.1144 285° West 435 501 28,000  Level Memphis Center
06:24PM 34.1844 -89.2447 277° West 435 501 28,000  Level Memphis Center
06:25PM 34.2086 -89.3903 281° West 440 506 28,000  Level Memphis Center
06:26PM 34.2306 -89.5356 280° West 446 513 28,000  Level Memphis Center
06:27PM 34.2522 -89.6786 280° West 446 513 28,000  Level Memphis Center
06:28PM 34.2489 -89.8269 268° West 446 513 28,000  Level Memphis Center
06:29PM 34.2411 -89.9853 267° West 436 502 28,000  Level Memphis Center
06:30PM 34.2350 -90.1286 267° West 436 502 28,000  Level Memphis Center
06:31PM 34.2542 -90.2667 280° West 430 495 28,000 -600 Level Memphis Center
06:32PM 34.3167 -90.3897 302° West 422 486 26,900 -1,500 Descending Memphis Center
06:33PM 34.3750 -90.5081 301° West 417 480 25,100 -1,320 Descending Memphis Center
06:34PM 34.4250 -90.6242 298° West 410 472 24,300 -960 Descending Memphis Center
06:35PM 34.4581 -90.7578 287° West 400 460 23,200 -1,020 Descending Memphis Center
06:36PM 34.4722 -90.8761 278° West 400 460 22,300 -960 Descending Memphis Center
06:37PM 34.4297 -91.0069 249° West 400 460 21,300 -1,080 Descending Memphis Center
06:38PM 34.4122 -91.1478 261° West 412 474 20,200 -1,560 Descending Memphis Center
06:39PM 34.4344 -91.2839 281° West 390 449 18,300 -2,400 Descending Memphis Center
06:39PM 34.4525 -91.3519 288° West 375 432 16,400 -2,940 Descending Memphis Center
06:40PM 34.5017 -91.4711 297° West 369 425 13,600 -2,580 Descending Memphis Center
06:41PM 34.5486 -91.5903 296° West 350 403 11,000 -1,740 Descending Memphis Center
06:42PM 34.5767 -91.6992 287° West 301 346 10,000 -1,320 Descending Memphis Center
06:43PM 34.5881 -91.7900 279° West 271 312 8,400 -1,740 Descending Memphis Center
06:44PM 34.6017 -91.8836 280° West 274 315 6,600 -1,560 Descending Memphis Center
06:45PM 34.6131 -91.9697 279° West 270 311 5,300 -840 Descending Memphis Center
06:47PM 34.6036 -92.0653 263° West 269 310 5,000 -180 Descending Memphis Center
06:48PM 34.5939 -92.1561 263° West 273 314 5,000  Level Memphis Center
06:49PM 34.5906 -92.2367 267° West 215 247 5,000 -360 Level Memphis Center
06:50PM 34.5833 -92.3019 262° West 190 219 4,300 -840 Descending Memphis Center
06:51PM 34.6075 -92.3506 301° West 188 216 3,400 -900 Descending Memphis Center